Time;durP1;ratioP1;P1;durP2;ratioP2;P2;SDS_P1;SDS_P2;PMS_P1;PMS_P2;Temp;Humidity;BMP_temperature;BMP_pressure;BME280_temperature;BME280_humidity;BME280_pressure;Samples;Min_cycle;Max_cycle;Signal;HPM_P1;HPM_P2
2023/11/25 00:01:52;;;;;;;4.82;0.73;;;15.80;67.40;;;;;;10533558;28;20020;-53
2023/11/25 00:06:53;;;;;;;1.60;0.77;;;15.70;67.50;;;;;;10533849;28;20058;-51
2023/11/25 00:11:53;;;;;;;3.35;0.70;;;15.70;67.50;;;;;;10533090;28;20321;-54
2023/11/25 00:16:54;;;;;;;2.45;0.70;;;15.70;67.50;;;;;;10533412;28;20028;-52
2023/11/25 00:21:55;;;;;;;1.23;0.60;;;15.70;67.60;;;;;;10533285;28;20024;-53
2023/11/25 00:26:55;;;;;;;3.08;0.85;;;15.70;67.60;;;;;;10533252;28;20439;-50
2023/11/25 00:31:56;;;;;;;1.63;0.60;;;15.70;67.70;;;;;;10560097;28;20386;-54
2023/11/25 00:36:56;;;;;;;3.65;1.50;;;15.60;67.60;;;;;;10546244;28;20032;-53
2023/11/25 00:41:58;;;;;;;2.50;0.73;;;15.60;67.60;;;;;;10532694;28;20111;-55
2023/11/25 00:47:00;;;;;;;2.22;1.10;;;15.60;67.60;;;;;;10540163;28;20031;-52
2023/11/25 00:52:01;;;;;;;3.03;0.40;;;15.60;67.70;;;;;;10554829;28;20032;-54
2023/11/25 00:57:01;;;;;;;2.40;0.75;;;15.60;67.60;;;;;;10575838;28;20019;-53
2023/11/25 01:02:02;;;;;;;2.92;1.27;;;15.60;67.70;;;;;;10582980;28;20077;-54
2023/11/25 01:07:03;;;;;;;3.67;1.40;;;15.60;67.70;;;;;;10577791;28;20460;-53
2023/11/25 01:12:03;;;;;;;2.22;1.17;;;15.50;67.60;;;;;;10540259;28;20107;-52
2023/11/25 01:17:04;;;;;;;2.28;0.70;;;15.50;67.50;;;;;;10540576;28;20360;-52
2023/11/25 01:22:05;;;;;;;4.15;1.00;;;15.50;67.60;;;;;;10540122;28;20027;-53
2023/11/25 01:27:06;;;;;;;2.83;0.88;;;15.50;67.70;;;;;;10567368;28;20024;-54
2023/11/25 01:32:07;;;;;;;4.32;1.23;;;15.50;67.60;;;;;;10552028;28;20032;-55
2023/11/25 01:37:07;;;;;;;2.97;0.80;;;15.50;67.60;;;;;;10539522;28;20073;-53
2023/11/25 01:42:08;;;;;;;2.75;0.60;;;15.40;67.50;;;;;;10538820;28;20032;-52
2023/11/25 01:47:09;;;;;;;4.68;1.05;;;15.50;67.70;;;;;;10538917;28;20102;-50
2023/11/25 01:52:09;;;;;;;3.80;0.75;;;15.50;67.60;;;;;;10538674;28;20517;-54
2023/11/25 01:57:10;;;;;;;2.08;0.50;;;15.40;67.50;;;;;;10538057;28;20029;-50
2023/11/25 02:02:13;;;;;;;2.10;0.90;;;15.40;67.60;;;;;;10520436;28;20451;-53
2023/11/25 02:07:14;;;;;;;3.85;1.05;;;15.40;67.70;;;;;;10520008;28;20032;-52
2023/11/25 02:12:15;;;;;;;2.72;0.95;;;15.40;67.70;;;;;;10519564;28;20028;-53
2023/11/25 02:17:16;;;;;;;2.28;0.75;;;15.40;67.70;;;;;;10519788;28;20534;-53
2023/11/25 02:22:17;;;;;;;3.95;1.30;;;15.40;67.70;;;;;;10537524;28;20022;-53
2023/11/25 02:27:17;;;;;;;3.38;0.90;;;15.30;67.60;;;;;;10519313;28;20064;-54
2023/11/25 02:32:18;;;;;;;4.32;1.15;;;15.30;67.60;;;;;;10554133;28;20143;-55
2023/11/25 02:37:19;;;;;;;2.20;0.90;;;15.30;67.50;;;;;;10547024;28;20089;-54
2023/11/25 02:42:21;;;;;;;2.17;0.77;;;15.30;67.50;;;;;;10536483;28;20023;-55
2023/11/25 02:47:21;;;;;;;4.28;0.80;;;15.30;67.70;;;;;;10537111;28;20028;-52
2023/11/25 02:52:25;;;;;;;4.10;0.80;;;15.30;67.70;;;;;;10536080;28;20613;-53
2023/11/25 02:57:26;;;;;;;2.30;0.90;;;15.30;67.70;;;;;;10536256;28;20073;-52
2023/11/25 03:02:27;;;;;;;3.42;1.08;;;15.20;67.70;;;;;;10536262;28;20017;-53
2023/11/25 03:07:30;;;;;;;3.55;0.77;;;15.30;73.60;;;;;;10538448;28;20023;-54
2023/11/25 03:12:31;;;;;;;3.08;1.33;;;15.40;72.90;;;;;;10535470;28;20494;-53
2023/11/25 03:17:31;;;;;;;2.75;0.80;;;15.40;72.80;;;;;;10535840;28;20060;-52
2023/11/25 03:22:32;;;;;;;3.08;0.90;;;15.40;71.80;;;;;;10535234;28;20052;-54
2023/11/25 03:27:35;;;;;;;2.92;0.90;;;15.40;71.40;;;;;;10535239;28;20056;-53
2023/11/25 03:32:36;;;;;;;2.80;1.02;;;15.30;71.10;;;;;;10567236;28;20061;-54
2023/11/25 03:37:36;;;;;;;2.92;0.88;;;15.30;71.00;;;;;;10542402;28;20051;-53
2023/11/25 03:42:38;;;;;;;3.60;0.95;;;15.30;70.80;;;;;;10534495;28;20615;-51
2023/11/25 03:47:40;;;;;;;3.42;1.40;;;15.30;70.70;;;;;;10534404;28;20037;-53
2023/11/25 03:52:41;;;;;;;3.88;1.00;;;15.30;70.60;;;;;;10530954;28;20467;-53
2023/11/25 03:57:43;;;;;;;4.45;0.80;;;15.30;70.40;;;;;;10533975;28;20055;-52
2023/11/25 04:02:47;;;;;;;4.82;0.80;;;15.30;70.30;;;;;;10533688;28;20048;-53
2023/11/25 04:07:47;;;;;;;3.47;0.77;;;15.20;70.10;;;;;;10533742;28;20036;-52
2023/11/25 04:12:52;;;;;;;2.00;0.90;;;15.20;70.10;;;;;;10532558;28;20395;-53
2023/11/25 04:17:53;;;;;;;3.97;0.82;;;15.20;70.00;;;;;;10533322;28;20028;-54
2023/11/25 04:22:55;;;;;;;2.75;0.75;;;15.20;69.80;;;;;;10532981;28;20020;-54
2023/11/25 04:27:56;;;;;;;4.30;1.25;;;15.20;69.80;;;;;;10521115;28;20048;-53
2023/11/25 04:32:57;;;;;;;2.63;0.95;;;15.20;69.70;;;;;;10516551;28;20174;-54
2023/11/25 04:37:57;;;;;;;4.85;1.25;;;15.20;69.70;;;;;;10519091;28;20046;-53
2023/11/25 04:42:58;;;;;;;2.85;0.70;;;15.10;69.70;;;;;;10521815;28;20027;-52
2023/11/25 04:47:59;;;;;;;3.53;1.00;;;15.10;69.60;;;;;;10532793;28;20456;-57
2023/11/25 04:52:59;;;;;;;4.20;0.90;;;15.10;69.50;;;;;;10514794;28;20024;-54
2023/11/25 04:58:00;;;;;;;5.57;1.17;;;15.10;69.40;;;;;;10532887;28;20026;-54
2023/11/25 05:03:00;;;;;;;6.43;1.00;;;15.10;69.40;;;;;;10532416;28;20036;-53
2023/11/25 05:08:01;;;;;;;6.38;1.35;;;15.10;69.40;;;;;;10532703;28;20036;-58
2023/11/25 05:13:02;;;;;;;1.75;0.85;;;15.00;69.30;;;;;;10564588;28;20103;-54
2023/11/25 05:18:03;;;;;;;2.35;0.68;;;15.10;69.10;;;;;;10574442;28;20504;-54
2023/11/25 05:23:03;;;;;;;1.65;0.70;;;15.30;68.60;;;;;;10574150;28;20080;-54
2023/11/25 05:28:04;;;;;;;1.70;0.60;;;15.40;68.00;;;;;;10563394;28;20035;-52
2023/11/25 05:33:04;;;;;;;2.40;0.80;;;15.60;67.30;;;;;;10534178;28;20070;-53
2023/11/25 05:38:05;;;;;;;2.42;0.70;;;15.80;66.80;;;;;;10539725;28;20024;-53
2023/11/25 05:43:05;;;;;;;3.03;0.95;;;15.90;66.40;;;;;;10564003;28;20036;-53
2023/11/25 05:48:06;;;;;;;2.28;0.40;;;16.10;66.00;;;;;;10537576;28;20042;-52
2023/11/25 05:53:06;;;;;;;2.17;0.50;;;16.20;65.70;;;;;;10544159;28;20024;-54
2023/11/25 05:58:07;;;;;;;2.28;0.77;;;16.30;65.20;;;;;;10550366;28;20027;-54
2023/11/25 06:03:08;;;;;;;2.22;0.50;;;16.50;64.80;;;;;;10538641;28;20463;-54
2023/11/25 06:08:08;;;;;;;1.73;0.77;;;16.60;64.80;;;;;;10538310;28;20746;-53
2023/11/25 06:13:09;;;;;;;2.20;0.60;;;16.80;64.20;;;;;;10535959;28;20023;-50
2023/11/25 06:18:13;;;;;;;3.67;0.93;;;16.80;64.70;;;;;;10547867;28;20123;-54
2023/11/25 06:26:38;;;;;;;9.10;1.42;;;17.00;66.90;;;;;;10531014;28;21020;-52
2023/11/25 06:31:43;;;;;;;2.97;0.63;;;17.30;65.10;;;;;;10487779;28;20028;-51
2023/11/25 06:36:44;;;;;;;12.30;1.23;;;17.50;64.60;;;;;;10507776;28;20055;-52
2023/11/25 06:41:48;;;;;;;4.97;0.95;;;17.40;64.20;;;;;;10499442;28;20101;-53
2023/11/25 06:46:49;;;;;;;6.95;1.20;;;17.40;64.50;;;;;;10487377;28;20041;-55
2023/11/25 06:51:50;;;;;;;9.95;1.85;;;17.50;63.90;;;;;;10483421;28;20025;-53
2023/11/25 06:56:51;;;;;;;15.88;1.60;;;17.60;63.10;;;;;;10484903;28;20033;-52
2023/11/25 07:01:54;;;;;;;3.28;1.02;;;17.60;62.90;;;;;;10477719;28;20028;-54
2023/11/25 07:06:55;;;;;;;5.75;0.73;;;17.70;62.90;;;;;;10484343;28;20036;-54
2023/11/25 07:11:56;;;;;;;4.43;0.63;;;17.70;62.80;;;;;;10512627;28;20030;-53
2023/11/25 07:16:57;;;;;;;1.75;0.60;;;17.70;62.80;;;;;;10503292;28;20111;-54
2023/11/25 07:21:57;;;;;;;2.58;0.47;;;17.70;62.50;;;;;;10494997;28;20052;-54
2023/11/25 07:27:04;;;;;;;2.53;0.77;;;17.70;62.50;;;;;;10510390;28;20081;-54
2023/11/25 07:32:05;;;;;;;3.35;0.65;;;17.80;62.50;;;;;;10475361;28;20041;-53
2023/11/25 07:37:07;;;;;;;3.70;0.70;;;17.80;62.30;;;;;;10461397;28;20120;-54
2023/11/25 07:42:08;;;;;;;1.63;0.40;;;17.80;62.40;;;;;;10455348;28;20037;-54
2023/11/25 07:47:08;;;;;;;3.13;0.90;;;17.90;62.00;;;;;;10436825;28;20488;-54
2023/11/25 07:52:09;;;;;;;2.55;0.60;;;18.00;62.30;;;;;;10452650;28;20021;-53
2023/11/25 07:57:10;;;;;;;2.53;0.68;;;18.10;61.60;;;;;;10453181;28;20028;-52
2023/11/25 08:02:11;;;;;;;4.10;0.70;;;18.00;61.70;;;;;;10455137;28;20396;-54
2023/11/25 08:07:11;;;;;;;5.60;0.70;;;18.00;61.70;;;;;;10454639;28;20473;-54
2023/11/25 08:12:12;;;;;;;8.63;0.70;;;18.00;61.70;;;;;;10465186;28;20420;-53
2023/11/25 08:17:13;;;;;;;4.00;0.32;;;18.00;61.50;;;;;;10463672;28;20029;-53
2023/11/25 08:22:16;;;;;;;6.93;0.65;;;18.10;61.50;;;;;;10457366;28;20073;-54
2023/11/25 08:27:16;;;;;;;1.90;0.50;;;18.20;61.40;;;;;;10478340;28;20048;-54
2023/11/25 08:32:17;;;;;;;3.47;1.05;;;18.10;61.80;;;;;;10456626;28;20039;-53
2023/11/25 08:37:24;;;;;;;3.38;0.52;;;18.10;62.00;;;;;;10461928;28;20091;-55
2023/11/25 08:42:28;;;;;;;12.90;1.85;;;18.10;62.10;;;;;;10451371;28;20705;-52
2023/11/25 08:47:29;;;;;;;3.65;0.70;;;18.20;61.80;;;;;;10451042;28;20044;-54
2023/11/25 08:52:34;;;;;;;5.15;0.80;;;18.10;62.40;;;;;;10447241;28;20032;-52
2023/11/25 08:57:36;;;;;;;5.13;0.93;;;18.10;62.10;;;;;;10443050;28;20040;-48
2023/11/25 09:02:36;;;;;;;7.28;1.15;;;17.90;62.20;;;;;;10449305;28;20070;-54
2023/11/25 09:07:38;;;;;;;17.00;1.77;;;17.90;62.40;;;;;;10451331;28;20358;-50
2023/11/25 09:12:40;;;;;;;10.25;1.67;;;18.00;61.90;;;;;;10452120;28;20032;-52
2023/11/25 09:17:41;;;;;;;14.15;2.47;;;17.90;62.80;;;;;;10449851;28;20520;-52
2023/11/25 09:22:42;;;;;;;12.50;1.65;;;17.60;63.50;;;;;;10451199;28;20037;-52
2023/11/25 09:27:44;;;;;;;9.00;1.30;;;17.60;63.30;;;;;;10450478;28;20045;-52
2023/11/25 09:32:45;;;;;;;9.85;1.90;;;17.70;63.00;;;;;;10450161;28;20103;-53
2023/11/25 09:37:48;;;;;;;10.65;1.50;;;17.70;63.30;;;;;;10449305;28;20106;-51
2023/11/25 09:42:48;;;;;;;9.93;1.42;;;17.60;63.40;;;;;;10449864;28;20033;-53
2023/11/25 09:47:49;;;;;;;6.63;0.98;;;17.50;63.40;;;;;;10449474;28;20767;-53
2023/11/25 09:52:52;;;;;;;6.07;1.20;;;17.50;63.70;;;;;;10449766;28;20044;-53
2023/11/25 09:58:02;;;;;;;11.73;1.65;;;17.50;63.80;;;;;;10448698;28;20043;-53
2023/11/25 10:03:06;;;;;;;5.22;1.27;;;17.40;63.80;;;;;;10448538;28;20083;-51
2023/11/25 10:08:07;;;;;;;3.53;1.30;;;17.40;64.60;;;;;;10438806;28;20086;-53
2023/11/25 10:13:14;;;;;;;7.65;1.00;;;17.30;65.00;;;;;;10449813;28;20542;-52
2023/11/25 10:18:14;;;;;;;4.70;1.23;;;17.20;65.30;;;;;;10449331;28;20044;-52
2023/11/25 10:23:21;;;;;;;5.63;1.98;;;17.10;65.60;;;;;;10448218;28;20055;-52
2023/11/25 10:28:26;;;;;;;5.35;1.00;;;17.00;65.50;;;;;;10449299;28;20033;-53
2023/11/25 10:33:27;;;;;;;3.85;0.80;;;16.90;65.80;;;;;;10449616;28;20585;-50
2023/11/25 10:38:28;;;;;;;2.88;0.80;;;16.80;67.20;;;;;;10448623;28;20492;-50
2023/11/25 10:43:30;;;;;;;4.30;0.73;;;16.80;67.30;;;;;;10448006;28;20029;-52
2023/11/25 10:48:33;;;;;;;3.65;1.23;;;16.80;67.40;;;;;;10447939;28;20029;-51
2023/11/25 10:53:41;;;;;;;1.80;0.63;;;16.80;67.20;;;;;;10449080;28;20063;-51
2023/11/25 10:58:43;;;;;;;6.45;0.98;;;16.90;67.30;;;;;;10447623;28;20434;-52
2023/11/25 11:04:13;;;;;;;3.65;1.10;;;16.90;67.30;;;;;;10447608;28;20037;-50
2023/11/25 11:09:20;;;;;;;2.00;0.65;;;16.80;67.30;;;;;;10448449;28;20033;-51
2023/11/25 11:14:22;;;;;;;2.83;1.25;;;16.80;67.50;;;;;;10456742;28;20116;-49
2023/11/25 11:19:39;;;;;;;2.58;1.05;;;16.60;67.70;;;;;;10456179;28;20025;-51
2023/11/25 11:25:18;;;;;;;5.50;0.88;;;16.60;68.00;;;;;;10456031;28;20045;-51
2023/11/25 11:30:30;;;;;;;1.85;0.60;;;16.50;68.20;;;;;;10454581;28;20033;-52
2023/11/25 11:35:38;;;;;;;2.63;1.10;;;16.50;68.20;;;;;;10454497;28;20044;-51
2023/11/25 11:40:38;;;;;;;4.72;0.70;;;16.50;67.90;;;;;;10455758;28;20101;-50
2023/11/25 11:45:42;;;;;;;3.80;1.00;;;16.60;67.80;;;;;;10453641;28;20039;-51
2023/11/25 11:50:48;;;;;;;6.03;0.95;;;16.50;67.90;;;;;;10453031;28;20083;-53
2023/11/25 11:55:49;;;;;;;4.05;0.93;;;16.50;67.90;;;;;;10453808;28;20028;-53
2023/11/25 12:01:00;;;;;;;3.58;0.90;;;16.60;67.80;;;;;;10454217;28;20037;-49
2023/11/25 12:06:01;;;;;;;2.97;1.08;;;16.60;67.50;;;;;;10453213;28;20056;-49
2023/11/25 12:11:04;;;;;;;1.55;0.82;;;16.50;67.60;;;;;;10444168;28;20025;-52
2023/11/25 12:16:08;;;;;;;1.98;1.15;;;16.50;67.70;;;;;;10454305;28;20064;-52
2023/11/25 12:21:09;;;;;;;1.77;0.60;;;16.40;67.80;;;;;;10453852;28;20673;-52
2023/11/25 12:26:11;;;;;;;4.65;1.02;;;16.40;67.90;;;;;;10453875;28;20561;-51
2023/11/25 12:31:11;;;;;;;3.83;1.27;;;16.30;67.90;;;;;;10452223;28;20025;-52
2023/11/25 12:36:12;;;;;;;2.35;0.68;;;16.30;68.00;;;;;;10453668;28;20520;-49
2023/11/25 12:41:15;;;;;;;3.22;0.90;;;16.20;68.20;;;;;;10453048;28;20506;-55
2023/11/25 12:46:17;;;;;;;4.97;0.98;;;16.20;68.20;;;;;;10451816;28;20628;-53
2023/11/25 12:51:18;;;;;;;3.25;1.25;;;16.20;68.40;;;;;;10452502;28;20411;-55
2023/11/25 12:56:19;;;;;;;5.00;0.88;;;16.20;67.90;;;;;;10452955;28;20028;-54
2023/11/25 13:01:24;;;;;;;3.28;1.40;;;16.20;67.70;;;;;;10433972;28;20033;-54
2023/11/25 13:06:25;;;;;;;5.43;1.27;;;16.30;67.90;;;;;;10452260;28;20037;-50
2023/11/25 13:11:26;;;;;;;2.15;0.77;;;16.30;68.00;;;;;;10450263;28;20538;-50
2023/11/25 13:16:26;;;;;;;2.58;0.65;;;16.30;67.70;;;;;;10452112;28;20098;-51
2023/11/25 13:21:27;;;;;;;1.67;0.65;;;16.40;67.40;;;;;;10451281;28;20024;-52
2023/11/25 13:26:28;;;;;;;2.15;0.77;;;16.60;66.50;;;;;;10451550;28;20047;-52
2023/11/25 13:31:28;;;;;;;2.72;0.90;;;16.60;66.70;;;;;;10450592;28;20029;-51
2023/11/25 13:36:29;;;;;;;2.00;0.63;;;16.60;65.80;;;;;;10451090;28;20039;-52
2023/11/25 13:41:30;;;;;;;8.15;0.68;;;16.80;65.50;;;;;;10450732;28;20033;-52
2023/11/25 13:46:30;;;;;;;4.30;0.80;;;16.80;65.40;;;;;;10450775;28;20037;-53
2023/11/25 13:51:31;;;;;;;1.75;0.80;;;16.80;65.30;;;;;;10450085;28;20020;-51
2023/11/25 13:56:32;;;;;;;3.00;0.82;;;16.80;65.20;;;;;;10450974;28;20045;-49
2023/11/25 14:01:32;;;;;;;2.22;0.70;;;16.90;65.10;;;;;;10450087;28;20029;-50
2023/11/25 14:06:33;;;;;;;1.88;0.60;;;16.90;65.00;;;;;;10447687;28;20037;-52
2023/11/25 14:11:34;;;;;;;1.80;0.60;;;16.80;65.00;;;;;;10449614;28;20031;-51
2023/11/25 14:16:34;;;;;;;2.05;0.70;;;16.80;65.10;;;;;;10449851;28;20037;-50
2023/11/25 14:21:35;;;;;;;1.25;0.60;;;16.80;65.00;;;;;;10449435;28;20043;-50
2023/11/25 14:26:36;;;;;;;2.88;0.60;;;16.90;65.00;;;;;;10449493;28;20049;-52
2023/11/25 14:31:37;;;;;;;1.58;0.40;;;16.90;64.70;;;;;;10448864;28;20033;-51
2023/11/25 14:36:38;;;;;;;1.67;0.40;;;16.90;64.80;;;;;;10449038;28;20601;-54
2023/11/25 14:41:39;;;;;;;2.22;0.60;;;16.90;64.80;;;;;;10448876;28;20028;-51
2023/11/25 14:46:40;;;;;;;2.58;0.57;;;16.90;64.80;;;;;;10454171;28;20028;-52
2023/11/25 14:51:40;;;;;;;2.13;0.50;;;16.90;64.80;;;;;;10455649;28;20021;-53
2023/11/25 14:56:43;;;;;;;2.35;0.63;;;16.90;64.70;;;;;;10457015;28;20033;-52
2023/11/25 15:01:46;;;;;;;1.48;0.45;;;16.90;64.80;;;;;;10456403;28;20048;-53
2023/11/25 15:06:47;;;;;;;2.95;0.70;;;16.90;64.70;;;;;;10456324;28;20041;-53
2023/11/25 15:11:48;;;;;;;1.65;0.93;;;16.90;64.70;;;;;;10456014;28;20039;-52
2023/11/25 15:16:49;;;;;;;2.13;0.68;;;16.90;64.70;;;;;;10456183;28;20056;-53
2023/11/25 15:21:53;;;;;;;1.50;0.50;;;16.90;64.70;;;;;;10455740;28;20039;-52
2023/11/25 15:26:54;;;;;;;3.13;0.60;;;17.10;64.10;;;;;;10456013;28;20045;-52
2023/11/25 15:31:55;;;;;;;3.03;0.70;;;17.10;64.00;;;;;;10454853;28;20507;-54
2023/11/25 15:36:55;;;;;;;1.88;0.50;;;17.10;64.00;;;;;;10455528;28;20036;-50
2023/11/25 15:41:56;;;;;;;2.20;0.60;;;17.10;64.00;;;;;;10454729;28;20628;-51
2023/11/25 15:46:57;;;;;;;2.47;0.60;;;17.20;63.80;;;;;;10454835;28;20028;-53
2023/11/25 15:51:58;;;;;;;1.90;0.60;;;17.10;64.40;;;;;;10454229;28;20481;-51
2023/11/25 15:56:59;;;;;;;2.30;0.63;;;17.10;63.70;;;;;;10454336;28;20025;-53
2023/11/25 16:02:00;;;;;;;2.58;0.80;;;17.10;63.70;;;;;;10453547;28;20029;-52
2023/11/25 16:07:00;;;;;;;3.38;0.60;;;17.10;63.60;;;;;;10448808;28;20018;-53
2023/11/25 16:12:01;;;;;;;1.95;0.65;;;17.10;63.80;;;;;;10448811;28;20028;-52
2023/11/25 16:17:02;;;;;;;2.78;1.00;;;17.00;63.90;;;;;;10452623;28;20159;-52
2023/11/25 16:22:04;;;;;;;3.63;0.82;;;17.10;63.80;;;;;;10453552;28;20025;-53
2023/11/25 16:27:04;;;;;;;2.03;0.70;;;17.00;63.70;;;;;;10453309;28;20060;-52
2023/11/25 16:32:05;;;;;;;1.83;0.60;;;17.10;63.60;;;;;;10451361;28;20032;-53
2023/11/25 16:37:06;;;;;;;4.30;0.95;;;17.00;63.70;;;;;;10453701;28;20028;-49
2023/11/25 16:42:07;;;;;;;1.95;0.75;;;17.10;63.80;;;;;;10452634;28;20036;-53
2023/11/25 16:47:08;;;;;;;3.33;0.60;;;17.10;63.60;;;;;;10452946;28;20029;-53
2023/11/25 16:52:09;;;;;;;3.10;0.90;;;17.10;63.60;;;;;;10452299;28;20021;-52
2023/11/25 16:57:10;;;;;;;2.92;0.80;;;17.20;63.50;;;;;;10452645;28;20029;-53
2023/11/25 17:02:11;;;;;;;1.42;0.82;;;17.10;63.50;;;;;;10451813;28;20025;-53
2023/11/25 17:07:12;;;;;;;2.47;0.85;;;17.20;63.50;;;;;;10459755;28;20033;-53
2023/11/25 17:12:13;;;;;;;1.90;0.75;;;17.10;63.60;;;;;;10449031;28;20025;-48
2023/11/25 17:17:13;;;;;;;2.38;0.52;;;17.20;63.50;;;;;;10451524;28;20376;-51
2023/11/25 17:22:14;;;;;;;3.05;0.77;;;17.10;63.60;;;;;;10450753;28;20198;-49
2023/11/25 17:27:16;;;;;;;1.30;0.60;;;17.10;63.70;;;;;;10450557;28;20106;-49
2023/11/25 17:32:16;;;;;;;1.95;0.60;;;17.10;63.60;;;;;;10450867;28;20029;-52
2023/11/25 17:37:19;;;;;;;3.30;0.80;;;17.20;63.60;;;;;;10451021;28;20070;-49
2023/11/25 17:42:20;;;;;;;1.40;0.57;;;17.10;63.50;;;;;;10451018;28;20457;-53
2023/11/25 17:47:21;;;;;;;2.42;0.50;;;17.10;63.50;;;;;;10451026;28;20075;-53
2023/11/25 17:52:22;;;;;;;1.95;0.60;;;17.20;63.50;;;;;;10450607;28;20438;-53
2023/11/25 17:57:23;;;;;;;1.17;0.47;;;17.20;63.30;;;;;;10450726;28;20029;-52
2023/11/25 18:02:25;;;;;;;2.17;0.50;;;17.20;63.20;;;;;;10449910;28;20032;-54
2023/11/25 18:07:27;;;;;;;2.42;0.90;;;17.20;63.40;;;;;;10450314;28;20452;-51
2023/11/25 18:12:27;;;;;;;0.93;0.47;;;17.20;63.30;;;;;;10449700;28;20029;-52
2023/11/25 18:17:28;;;;;;;2.40;0.60;;;17.20;63.40;;;;;;10450169;28;20426;-50
2023/11/25 18:22:29;;;;;;;1.55;0.50;;;17.20;63.30;;;;;;10449224;28;20403;-52
2023/11/25 18:27:30;;;;;;;1.48;0.63;;;17.20;63.30;;;;;;10449832;28;20104;-52
2023/11/25 18:32:30;;;;;;;1.90;0.55;;;17.20;63.20;;;;;;10449821;28;20033;-52
2023/11/25 18:37:31;;;;;;;2.80;0.60;;;17.20;63.30;;;;;;10449564;28;20047;-53
2023/11/25 18:42:32;;;;;;;1.80;0.60;;;17.20;63.50;;;;;;10449346;28;20032;-53
2023/11/25 18:47:33;;;;;;;1.50;0.60;;;17.20;63.40;;;;;;10448604;28;20021;-49
2023/11/25 18:52:34;;;;;;;2.70;1.00;;;17.20;63.40;;;;;;10449155;28;20044;-52
2023/11/25 18:57:34;;;;;;;2.47;0.70;;;17.20;63.20;;;;;;10447617;28;20033;-50
2023/11/25 19:02:37;;;;;;;1.15;0.70;;;17.20;63.30;;;;;;10449290;28;20035;-50
2023/11/25 19:07:38;;;;;;;4.07;1.77;;;17.20;63.10;;;;;;10438505;28;20499;-51
2023/11/25 19:12:38;;;;;;;2.60;0.90;;;17.20;63.20;;;;;;10447251;28;20064;-54
2023/11/25 19:17:39;;;;;;;2.00;0.75;;;17.20;63.20;;;;;;10448057;28;20025;-53
2023/11/25 19:22:41;;;;;;;1.48;0.70;;;17.20;63.10;;;;;;10447673;28;20060;-52
2023/11/25 19:27:41;;;;;;;2.10;0.63;;;17.20;63.20;;;;;;10448441;28;20017;-52
2023/11/25 19:32:42;;;;;;;2.58;0.80;;;17.10;63.40;;;;;;10453250;28;20408;-52
2023/11/25 19:37:43;;;;;;;1.42;0.80;;;17.10;63.50;;;;;;10455878;28;20024;-52
2023/11/25 19:42:43;;;;;;;3.03;0.63;;;17.10;63.30;;;;;;10455936;28;20033;-48
2023/11/25 19:47:44;;;;;;;1.73;0.50;;;17.20;63.20;;;;;;10455424;28;20039;-50
2023/11/25 19:52:45;;;;;;;1.65;0.63;;;17.20;63.10;;;;;;10455394;28;20037;-50
2023/11/25 19:57:46;;;;;;;1.88;0.70;;;17.30;63.10;;;;;;10455026;28;20373;-53
2023/11/25 20:02:46;;;;;;;2.78;1.00;;;17.20;63.10;;;;;;10454956;28;20434;-53
2023/11/25 20:07:47;;;;;;;2.60;0.90;;;17.20;62.90;;;;;;10444200;28;20157;-53
2023/11/25 20:12:48;;;;;;;2.53;0.93;;;17.20;63.20;;;;;;10454965;28;20111;-51
2023/11/25 20:17:49;;;;;;;2.85;1.00;;;17.10;63.40;;;;;;10453913;28;20543;-52
2023/11/25 20:22:51;;;;;;;1.52;1.00;;;17.00;63.80;;;;;;10453616;28;20408;-54
2023/11/25 20:27:51;;;;;;;8.02;0.98;;;16.80;63.80;;;;;;10453285;28;20404;-55
2023/11/25 20:32:52;;;;;;;2.80;1.38;;;16.70;64.80;;;;;;10452492;28;20032;-54
2023/11/25 20:37:53;;;;;;;4.25;1.10;;;16.50;65.00;;;;;;10446821;28;20033;-49
2023/11/25 20:42:53;;;;;;;10.05;1.75;;;16.50;65.50;;;;;;10452789;28;20307;-49
2023/11/25 20:47:54;;;;;;;10.65;1.77;;;16.50;66.00;;;;;;10452050;28;20040;-48
2023/11/25 20:52:55;;;;;;;6.05;1.38;;;16.50;65.50;;;;;;10450894;28;20116;-55
2023/11/25 20:57:55;;;;;;;8.63;1.60;;;16.60;66.00;;;;;;10439230;28;20674;-56
2023/11/25 21:02:57;;;;;;;4.68;1.80;;;16.50;65.70;;;;;;10451028;28;20029;-56
2023/11/25 21:07:57;;;;;;;10.10;1.45;;;16.40;65.90;;;;;;10447706;28;20021;-56
2023/11/25 21:12:59;;;;;;;11.15;2.60;;;16.30;66.20;;;;;;10450331;28;20382;-56
2023/11/25 21:18:01;;;;;;;5.47;1.50;;;16.20;66.30;;;;;;10450787;28;20044;-56
2023/11/25 21:23:02;;;;;;;4.20;1.05;;;16.20;66.40;;;;;;10451666;28;20049;-56
2023/11/25 21:28:03;;;;;;;6.25;1.40;;;16.20;66.50;;;;;;10450126;28;20466;-56
2023/11/25 21:33:04;;;;;;;5.97;2.70;;;16.10;66.50;;;;;;10451293;28;20040;-56
2023/11/25 21:38:05;;;;;;;5.65;1.40;;;16.10;66.50;;;;;;10449584;28;20037;-56
2023/11/25 21:43:06;;;;;;;4.05;1.30;;;16.00;66.50;;;;;;10451295;28;20029;-56
2023/11/25 21:48:07;;;;;;;4.80;1.92;;;16.00;66.60;;;;;;10450545;28;20021;-56
2023/11/25 21:53:08;;;;;;;5.40;1.77;;;15.90;66.60;;;;;;10450570;28;20090;-56
2023/11/25 21:58:08;;;;;;;5.25;1.73;;;15.90;66.50;;;;;;10450246;28;20427;-56
2023/11/25 22:03:09;;;;;;;6.22;1.58;;;15.90;66.70;;;;;;10450400;28;20029;-55
2023/11/25 22:08:10;;;;;;;4.13;1.60;;;15.80;66.60;;;;;;10440118;28;20024;-56
2023/11/25 22:13:11;;;;;;;3.60;1.63;;;15.80;66.70;;;;;;10448733;28;20025;-56
2023/11/25 22:18:12;;;;;;;4.55;1.90;;;15.80;66.80;;;;;;10450021;28;20033;-56
2023/11/25 22:23:16;;;;;;;6.35;1.42;;;15.80;66.90;;;;;;10449438;28;20041;-56
2023/11/25 22:28:17;;;;;;;4.05;1.50;;;15.70;67.00;;;;;;10449417;28;20106;-56
2023/11/25 22:33:17;;;;;;;4.53;2.33;;;15.70;67.10;;;;;;10449295;28;20037;-55
2023/11/25 22:38:18;;;;;;;4.30;1.77;;;15.70;67.00;;;;;;10448862;28;20086;-56
2023/11/25 22:43:19;;;;;;;3.83;1.75;;;15.70;66.90;;;;;;10447757;28;20470;-56
2023/11/25 22:48:20;;;;;;;4.82;1.60;;;15.70;66.90;;;;;;10448500;28;20025;-56
2023/11/25 22:53:20;;;;;;;3.13;1.40;;;15.60;66.60;;;;;;10449028;28;20043;-55
2023/11/25 22:58:21;;;;;;;3.85;1.17;;;15.60;66.60;;;;;;10448520;28;20059;-55
2023/11/25 23:03:22;;;;;;;3.80;1.27;;;15.60;66.40;;;;;;10448685;28;20025;-56
2023/11/25 23:08:23;;;;;;;3.95;1.77;;;15.60;66.40;;;;;;10445009;28;20027;-56
2023/11/25 23:13:24;;;;;;;2.33;1.00;;;15.60;66.30;;;;;;10455142;28;20033;-56
2023/11/25 23:18:25;;;;;;;4.65;1.90;;;15.60;66.60;;;;;;10454524;28;20496;-57
2023/11/25 23:23:25;;;;;;;3.42;1.58;;;15.50;66.40;;;;;;10454518;28;20398;-55
2023/11/25 23:28:27;;;;;;;3.22;1.13;;;15.50;66.50;;;;;;10455666;28;20074;-56
2023/11/25 23:33:28;;;;;;;2.33;1.23;;;15.50;66.40;;;;;;10455752;28;20029;-55
2023/11/25 23:38:29;;;;;;;3.05;2.00;;;15.50;66.70;;;;;;10455229;28;20693;-57
2023/11/25 23:43:30;;;;;;;2.45;1.42;;;15.40;66.70;;;;;;10455394;28;20029;-56
2023/11/25 23:48:30;;;;;;;1.83;1.00;;;15.40;66.60;;;;;;10454883;28;20025;-57
2023/11/25 23:53:31;;;;;;;3.33;1.58;;;15.40;66.60;;;;;;10454900;28;20029;-56
2023/11/25 23:58:32;;;;;;;4.30;2.22;;;15.40;66.50;;;;;;10454505;28;20036;-56
